createdAt,value
2019-03-10T00:02:07.558Z,5.00
2019-03-10T00:04:38.815Z,12.03
2019-03-10T00:07:10.086Z,8.27
2019-03-10T00:09:41.358Z,13.77
2019-03-10T00:12:12.618Z,19.07
2019-03-10T00:14:43.925Z,10.13
2019-03-10T00:17:15.249Z,9.93
2019-03-10T00:19:46.459Z,4.97
2019-03-10T00:22:17.802Z,8.97
2019-03-10T00:24:49.048Z,9.40
2019-03-10T00:27:20.345Z,16.40
2019-03-10T00:29:51.640Z,10.53
2019-03-10T00:32:41.756Z,20.10
2019-03-10T00:38:15.154Z,11.47
2019-03-10T00:42:09.264Z,12.00
2019-03-10T00:45:32.889Z,26.53
2019-03-10T00:49:14.618Z,11.10
2019-03-10T00:52:36.962Z,12.43
2019-03-10T00:55:08.218Z,10.13
2019-03-10T00:57:39.584Z,12.77
2019-03-10T01:00:17.502Z,15.40
2019-03-10T01:02:48.669Z,13.20
2019-03-10T01:05:20.484Z,10.23
2019-03-10T01:07:55.069Z,17.50
2019-03-10T01:10:26.385Z,17.87
2019-03-10T01:12:57.769Z,17.93
2019-03-10T01:15:29.466Z,9.47
2019-03-10T01:18:02.182Z,19.13
2019-03-10T01:20:34.004Z,11.43
2019-03-10T01:23:05.371Z,18.47
2019-03-10T01:25:36.629Z,11.73
2019-03-10T01:28:10.258Z,13.83
2019-03-10T01:31:11.010Z,21.40
2019-03-10T01:34:51.081Z,9.33
2019-03-10T01:37:22.334Z,15.47
2019-03-10T01:39:53.594Z,21.10
2019-03-10T01:42:24.806Z,10.90
2019-03-10T01:44:56.058Z,11.30
2019-03-10T01:47:27.356Z,11.13
2019-03-10T01:49:58.497Z,15.30
2019-03-10T01:52:29.781Z,19.77
2019-03-10T01:55:01.068Z,27.40
2019-03-10T01:57:32.345Z,15.63
2019-03-10T02:00:22.602Z,12.50
2019-03-10T02:03:12.745Z,13.00
2019-03-10T02:05:43.978Z,28.97
2019-03-10T02:08:15.234Z,12.63
2019-03-10T02:10:46.400Z,14.80
2019-03-10T02:13:17.592Z,21.17
2019-03-10T02:15:48.849Z,14.43
2019-03-10T02:18:20.044Z,16.17
2019-03-10T02:20:51.265Z,18.10
2019-03-10T02:23:22.470Z,23.73
2019-03-10T02:25:53.765Z,16.83
2019-03-10T02:28:24.952Z,22.77
2019-03-10T02:30:56.188Z,16.17
2019-03-10T02:33:27.401Z,17.80
2019-03-10T02:35:58.618Z,25.53
2019-03-10T02:38:29.922Z,27.00
2019-03-10T02:41:01.149Z,24.00
2019-03-10T02:43:32.380Z,24.00
2019-03-10T02:46:03.536Z,18.73
2019-03-10T02:48:34.787Z,15.17
2019-03-10T02:51:06.003Z,23.50
2019-03-10T02:53:37.311Z,12.23
2019-03-10T02:56:08.444Z,12.50
2019-03-10T02:58:39.683Z,18.47
2019-03-10T03:01:10.944Z,20.87
2019-03-10T03:03:42.128Z,19.47
2019-03-10T03:06:13.447Z,20.60
2019-03-10T03:08:44.611Z,21.53
2019-03-10T03:11:15.817Z,23.97
2019-03-10T03:13:47.073Z,25.27
2019-03-10T03:16:18.315Z,17.47
2019-03-10T03:18:49.524Z,29.50
2019-03-10T03:21:20.889Z,10.60
2019-03-10T03:23:52.127Z,17.70
2019-03-10T03:26:23.443Z,25.53
2019-03-10T03:28:54.656Z,13.97
2019-03-10T03:31:26.087Z,15.93
2019-03-10T03:33:57.275Z,24.90
2019-03-10T03:36:32.533Z,22.93
2019-03-10T03:39:22.077Z,16.37
2019-03-10T03:41:53.355Z,19.63
2019-03-10T03:44:24.494Z,15.70
2019-03-10T03:46:55.761Z,25.87
2019-03-10T03:49:26.989Z,18.07
2019-03-10T03:51:58.369Z,16.30
2019-03-10T03:54:29.510Z,11.53
2019-03-10T03:57:00.688Z,19.50
2019-03-10T03:59:31.953Z,23.60
2019-03-10T04:02:16.421Z,16.20
2019-03-10T04:04:47.659Z,16.70
2019-03-10T04:07:18.946Z,17.23
2019-03-10T04:09:50.170Z,22.90
2019-03-10T04:12:21.384Z,19.00
2019-03-10T04:14:52.577Z,24.73
2019-03-10T04:17:23.818Z,22.43
2019-03-10T04:19:55.062Z,21.80
2019-03-10T04:22:26.398Z,27.03
2019-03-10T04:24:57.545Z,18.90
2019-03-10T04:27:28.821Z,26.40
2019-03-10T04:30:00.042Z,24.37
2019-03-10T04:32:31.360Z,17.10
2019-03-10T04:35:02.573Z,17.73
2019-03-10T04:37:33.714Z,28.63
2019-03-10T04:40:05.236Z,13.37
2019-03-10T04:42:36.511Z,13.60
2019-03-10T04:45:08.160Z,16.13
2019-03-10T04:47:39.423Z,16.17
2019-03-10T04:50:10.839Z,22.73
2019-03-10T04:52:42.199Z,11.30
2019-03-10T04:55:44.147Z,17.03
2019-03-10T04:58:16.156Z,10.80
2019-03-10T05:00:50.926Z,11.93
2019-03-10T05:03:22.224Z,15.17
2019-03-10T05:05:53.484Z,16.43
2019-03-10T05:08:24.624Z,18.67
2019-03-10T05:10:55.956Z,17.10
2019-03-10T05:13:27.123Z,12.90
2019-03-10T05:15:58.389Z,8.13
2019-03-10T05:18:29.616Z,13.17
2019-03-10T05:21:00.761Z,14.00
2019-03-10T05:23:38.588Z,11.23
2019-03-10T05:26:09.885Z,17.90
2019-03-10T05:28:47.117Z,17.03
2019-03-10T05:31:18.404Z,10.43
2019-03-10T05:33:49.611Z,8.37
2019-03-10T05:36:20.730Z,11.40
2019-03-10T05:38:51.979Z,9.50
2019-03-10T05:41:23.149Z,19.03
2019-03-10T05:43:54.399Z,10.10
2019-03-10T05:46:25.709Z,14.50
2019-03-10T05:48:56.966Z,7.10
2019-03-10T05:51:28.162Z,9.63
2019-03-10T05:53:59.419Z,13.83
2019-03-10T05:56:30.559Z,17.80
2019-03-10T05:59:01.679Z,18.53
2019-03-10T06:01:32.907Z,18.00
2019-03-10T06:04:04.180Z,15.90
2019-03-10T06:06:35.415Z,14.40
2019-03-10T06:09:08.277Z,14.60
2019-03-10T06:11:39.531Z,18.63
2019-03-10T06:14:10.779Z,23.10
2019-03-10T06:16:42.087Z,15.23
2019-03-10T06:19:13.308Z,14.37
2019-03-10T06:21:44.549Z,9.97
2019-03-10T06:24:15.678Z,9.80
2019-03-10T06:26:46.854Z,15.63
2019-03-10T06:29:17.976Z,11.13
2019-03-10T06:31:49.139Z,9.70
2019-03-10T06:34:20.366Z,17.13
2019-03-10T06:36:51.534Z,8.67
2019-03-10T06:39:22.754Z,18.10
2019-03-10T06:41:53.873Z,13.37
2019-03-10T06:44:25.039Z,16.90
2019-03-10T06:46:56.317Z,7.30
2019-03-10T06:49:28.626Z,8.40
2019-03-10T06:51:59.776Z,4.60
2019-03-10T06:54:31.084Z,7.63
2019-03-10T06:57:02.232Z,3.70
2019-03-10T06:59:36.317Z,4.93
2019-03-10T07:02:07.436Z,4.90
2019-03-10T07:04:38.723Z,5.70
2019-03-10T07:07:09.869Z,6.00
2019-03-10T07:09:41.129Z,6.97
2019-03-10T07:12:12.359Z,1.73
2019-03-10T07:14:43.612Z,5.03
2019-03-10T07:17:14.768Z,7.13
2019-03-10T07:19:45.918Z,6.00
2019-03-10T07:22:17.214Z,4.80
2019-03-10T07:24:51.358Z,5.30
2019-03-10T07:27:24.351Z,6.07
2019-03-10T07:30:14.279Z,3.90
2019-03-10T07:33:00.699Z,3.20
2019-03-10T07:35:49.351Z,9.23
2019-03-10T07:38:43.442Z,3.47
2019-03-10T07:41:45.609Z,4.73
2019-03-10T07:44:25.711Z,5.30
2019-03-10T07:47:14.119Z,7.47
2019-03-10T07:49:54.927Z,7.27
2019-03-10T07:52:44.885Z,4.10
2019-03-10T07:55:44.098Z,12.97
2019-03-10T07:58:40.227Z,9.70
2019-03-10T08:01:29.116Z,5.90
2019-03-10T08:04:28.316Z,8.57
2019-03-10T08:07:16.927Z,9.63
2019-03-10T08:10:22.067Z,6.00
2019-03-10T08:13:08.544Z,4.53
2019-03-10T08:15:57.127Z,8.50
2019-03-10T08:18:37.213Z,6.67
2019-03-10T08:21:18.412Z,5.30
2019-03-10T08:24:05.067Z,4.53
2019-03-10T08:26:58.044Z,4.90
2019-03-10T08:29:50.757Z,4.63
2019-03-10T08:32:58.951Z,5.20
2019-03-10T08:36:00.877Z,4.53
2019-03-10T08:38:52.655Z,10.27
2019-03-10T08:41:57.555Z,3.87
2019-03-10T08:44:36.005Z,5.63
2019-03-10T08:47:41.294Z,5.00
2019-03-10T08:50:30.535Z,6.60
2019-03-10T08:53:19.222Z,7.03
2019-03-10T08:56:27.406Z,7.47
2019-03-10T08:59:15.608Z,6.00
2019-03-10T09:02:08.236Z,7.20
2019-03-10T09:05:06.845Z,4.83
2019-03-10T09:08:07.841Z,4.93
2019-03-10T09:10:53.533Z,6.77
2019-03-10T09:13:43.522Z,4.00
2019-03-10T09:16:33.365Z,4.13
2019-03-10T09:19:12.761Z,5.20
2019-03-10T09:22:03.238Z,3.87
2019-03-10T09:25:02.310Z,4.17
2019-03-10T09:27:55.137Z,7.57
2019-03-10T09:30:43.744Z,9.50
2019-03-10T09:33:28.765Z,6.43
2019-03-10T09:36:12.104Z,3.87
2019-03-10T09:39:08.154Z,7.33
2019-03-10T09:42:07.354Z,5.33
2019-03-10T09:45:03.383Z,6.23
2019-03-10T09:47:53.377Z,4.40
2019-03-10T09:50:41.858Z,7.20
2019-03-10T09:53:24.229Z,6.50
2019-03-10T09:56:20.588Z,4.80
2019-03-10T09:59:03.828Z,6.33
2019-03-10T10:01:55.020Z,4.33
2019-03-10T10:04:56.492Z,5.00
2019-03-10T10:07:54.063Z,6.37
2019-03-10T10:10:48.542Z,6.17
2019-03-10T10:13:50.608Z,10.33
2019-03-10T10:16:40.542Z,14.50
2019-03-10T10:19:29.145Z,10.77
2019-03-10T10:22:28.304Z,9.43
2019-03-10T10:25:33.491Z,13.83
2019-03-10T10:28:13.873Z,12.10
2019-03-10T10:30:56.329Z,12.80
2019-03-10T10:33:46.307Z,10.80
2019-03-10T10:36:34.791Z,16.90
2019-03-10T10:39:26.109Z,11.27
2019-03-10T10:42:14.739Z,11.77
2019-03-10T10:45:00.525Z,16.40
2019-03-10T10:47:51.962Z,13.90
2019-03-10T10:51:18.691Z,11.97
2019-03-10T10:54:12.851Z,10.50
2019-03-10T10:57:20.784Z,13.80
2019-03-10T11:00:06.933Z,10.00
2019-03-10T11:02:51.769Z,20.40
2019-03-10T11:05:54.187Z,10.53
2019-03-10T11:08:44.202Z,10.40
2019-03-10T11:11:41.911Z,13.43
2019-03-10T11:14:30.567Z,9.30
2019-03-10T11:17:23.575Z,5.83
2019-03-10T11:20:15.366Z,11.20
2019-03-10T11:23:08.232Z,8.73
2019-03-10T11:26:00.589Z,10.23
2019-03-10T11:29:05.488Z,9.00
2019-03-10T11:31:55.503Z,13.30
2019-03-10T11:34:46.375Z,10.97
2019-03-10T11:37:39.538Z,5.53
2019-03-10T11:40:33.319Z,9.57
2019-03-10T11:43:13.315Z,11.90
2019-03-10T11:46:14.417Z,8.67
2019-03-10T11:48:59.863Z,10.80
2019-03-10T11:51:50.061Z,10.20
2019-03-10T11:54:52.100Z,7.33
2019-03-10T11:57:45.172Z,12.90
2019-03-10T12:00:28.552Z,6.80
2019-03-10T12:03:17.315Z,11.70
2019-03-10T12:06:08.480Z,3.70
2019-03-10T12:08:52.195Z,8.97
2019-03-10T12:11:24.893Z,10.63
2019-03-10T12:13:56.150Z,16.13
2019-03-10T12:16:27.512Z,6.30
2019-03-10T12:18:58.851Z,10.63
2019-03-10T12:21:30.229Z,17.00
2019-03-10T12:24:01.599Z,7.80
2019-03-10T12:26:33.067Z,13.77
2019-03-10T12:29:04.460Z,9.50
2019-03-10T12:31:35.966Z,14.03
2019-03-10T12:34:07.149Z,18.87
2019-03-10T12:36:40.057Z,11.97
2019-03-10T12:39:11.786Z,17.20
2019-03-10T12:41:43.449Z,15.10
2019-03-10T12:44:14.868Z,20.27
2019-03-10T12:46:46.161Z,15.73
2019-03-10T12:49:17.737Z,14.37
2019-03-10T12:52:04.140Z,25.17
2019-03-10T12:54:35.441Z,10.67
2019-03-10T12:57:06.776Z,11.40
2019-03-10T12:59:38.089Z,11.87
2019-03-10T13:02:09.569Z,8.90
2019-03-10T13:04:41.280Z,11.83
2019-03-10T13:07:13.699Z,14.27
2019-03-10T13:09:45.012Z,9.13
2019-03-10T13:12:16.348Z,8.27
2019-03-10T13:14:58.751Z,7.90
2019-03-10T13:17:20.685Z,5.33
2019-03-10T13:19:55.586Z,12.20
2019-03-10T13:22:28.649Z,7.40
2019-03-10T13:25:00.738Z,8.83
2019-03-10T13:27:32.166Z,15.53
2019-03-10T13:30:07.497Z,14.03
2019-03-10T13:32:38.897Z,12.67
2019-03-10T13:35:10.400Z,8.83
2019-03-10T13:37:41.790Z,12.63
2019-03-10T13:40:13.461Z,8.90
2019-03-10T13:42:45.213Z,10.20
2019-03-10T13:45:16.526Z,4.93
2019-03-10T13:47:47.847Z,5.27
2019-03-10T13:50:19.263Z,6.77
2019-03-10T13:53:09.628Z,4.80
2019-03-10T13:56:03.223Z,10.13
2019-03-10T13:58:34.527Z,5.60
2019-03-10T14:01:06.018Z,8.13
2019-03-10T14:03:37.314Z,8.90
2019-03-10T14:06:08.620Z,9.70
2019-03-10T14:08:39.955Z,4.70
2019-03-10T14:11:11.294Z,3.53
2019-03-10T14:13:42.735Z,8.73
2019-03-10T14:16:14.098Z,5.20
2019-03-10T14:18:45.409Z,9.70
2019-03-10T14:21:16.653Z,5.23
2019-03-10T14:23:47.967Z,7.57
2019-03-10T14:26:19.374Z,8.57
2019-03-10T14:28:50.771Z,3.30
2019-03-10T14:31:22.047Z,5.30
2019-03-10T14:33:53.282Z,7.57
2019-03-10T14:36:24.624Z,5.07
2019-03-10T14:38:55.917Z,8.83
2019-03-10T14:41:27.172Z,2.60
2019-03-10T14:43:58.411Z,3.93
2019-03-10T14:46:29.608Z,5.77
2019-03-10T14:49:00.918Z,3.00
2019-03-10T14:51:32.121Z,6.50
2019-03-10T14:54:03.333Z,3.93
2019-03-10T14:56:34.553Z,4.30
2019-03-10T14:59:06.044Z,5.57
2019-03-10T15:01:37.323Z,6.00
2019-03-10T15:04:08.783Z,11.43
2019-03-10T15:06:39.939Z,3.10
2019-03-10T15:09:13.029Z,3.70
2019-03-10T15:11:44.260Z,2.23
2019-03-10T15:14:15.509Z,2.10
2019-03-10T15:16:46.717Z,4.37
2019-03-10T15:19:18.044Z,3.63
2019-03-10T15:21:49.249Z,4.43
2019-03-10T15:24:20.509Z,4.40
2019-03-10T15:26:51.841Z,3.30
2019-03-10T15:29:23.007Z,3.63
2019-03-10T15:31:54.222Z,3.60
2019-03-10T15:34:25.560Z,2.30
2019-03-10T15:36:56.883Z,1.50
2019-03-10T15:39:28.207Z,1.33
2019-03-10T15:41:59.600Z,2.27
2019-03-10T15:44:30.771Z,3.57
2019-03-10T15:47:02.092Z,1.10
2019-03-10T15:49:33.541Z,2.20
2019-03-10T15:52:07.302Z,1.10
2019-03-10T15:54:37.762Z,1.00
2019-03-10T15:57:09.189Z,1.10
2019-03-10T15:59:40.564Z,1.80
2019-03-10T16:02:14.506Z,2.10
2019-03-10T16:04:45.836Z,2.03
2019-03-10T16:07:17.176Z,1.27
2019-03-10T16:09:48.511Z,1.63
2019-03-10T16:12:20.002Z,2.07
2019-03-10T16:14:51.461Z,3.97
2019-03-10T16:17:22.732Z,0.90
2019-03-10T16:19:54.246Z,1.00
2019-03-10T16:22:25.508Z,0.90
2019-03-10T16:24:57.057Z,1.30
2019-03-10T16:27:28.327Z,1.00
2019-03-10T16:30:01.664Z,0.90
2019-03-10T16:32:32.973Z,0.90
2019-03-10T16:35:04.549Z,1.30
2019-03-10T16:37:35.858Z,1.10
2019-03-10T16:40:09.290Z,1.10
2019-03-10T16:42:40.549Z,0.80
2019-03-10T16:45:18.205Z,1.00
2019-03-10T16:47:49.609Z,0.80
2019-03-10T16:50:21.118Z,0.90
2019-03-10T16:53:11.630Z,1.10
2019-03-10T16:55:43.015Z,1.20
2019-03-10T16:58:14.349Z,0.97
2019-03-10T17:00:45.714Z,1.20
2019-03-10T17:03:17.071Z,1.07
2019-03-10T17:05:48.368Z,0.97
2019-03-10T17:08:22.633Z,1.30
2019-03-10T17:10:54.187Z,1.37
2019-03-10T17:13:25.811Z,1.70
2019-03-10T17:15:57.128Z,1.70
2019-03-10T17:18:31.076Z,2.00
2019-03-10T17:21:04.955Z,2.30
2019-03-10T17:23:39.653Z,1.77
2019-03-10T17:26:10.889Z,1.87
2019-03-10T17:28:44.924Z,1.83
2019-03-10T17:31:16.341Z,2.10
2019-03-10T17:33:47.674Z,2.70
2019-03-10T17:36:19.059Z,2.27
2019-03-10T17:38:50.321Z,2.03
2019-03-10T17:41:23.333Z,3.20
2019-03-10T17:44:02.599Z,3.57
2019-03-10T17:46:36.960Z,4.37
2019-03-10T17:49:08.272Z,8.23
2019-03-10T17:51:40.189Z,3.73
2019-03-10T17:54:11.503Z,3.80
2019-03-10T17:56:42.790Z,3.90
2019-03-10T17:59:14.157Z,4.57
2019-03-10T18:01:45.516Z,3.30
2019-03-10T18:04:16.878Z,3.20
2019-03-10T18:06:48.726Z,3.23
2019-03-10T18:09:23.166Z,2.80
2019-03-10T18:11:54.364Z,2.73
2019-03-10T18:14:28.794Z,3.73
2019-03-10T18:17:00.099Z,3.17
2019-03-10T18:19:31.421Z,2.90
2019-03-10T18:22:02.714Z,3.50
2019-03-10T18:24:35.798Z,4.20
2019-03-10T18:27:07.064Z,4.13
2019-03-10T18:29:39.246Z,4.07
2019-03-10T18:32:11.014Z,3.00
2019-03-10T18:34:42.729Z,4.10
2019-03-10T18:37:14.452Z,2.53
2019-03-10T18:39:48.504Z,3.33
2019-03-10T18:42:22.763Z,3.00
2019-03-10T18:44:54.746Z,2.67
2019-03-10T18:47:27.322Z,3.27
2019-03-10T18:50:08.720Z,3.17
2019-03-10T18:52:40.020Z,3.90
2019-03-10T18:55:15.385Z,3.17
2019-03-10T18:57:48.413Z,2.00
2019-03-10T19:00:23.006Z,1.37
2019-03-10T19:02:59.990Z,1.57
2019-03-10T19:05:38.554Z,1.80
2019-03-10T19:08:10.003Z,2.63
2019-03-10T19:10:41.296Z,1.70
2019-03-10T19:13:12.648Z,2.63
2019-03-10T19:15:43.962Z,2.00
2019-03-10T19:18:15.367Z,2.10
2019-03-10T19:20:46.772Z,2.87
2019-03-10T19:23:18.286Z,2.63
2019-03-10T19:25:49.607Z,2.97
2019-03-10T19:28:20.970Z,2.20
2019-03-10T19:30:53.092Z,1.43
2019-03-10T19:33:24.433Z,1.30
2019-03-10T19:35:56.074Z,1.00
2019-03-10T19:38:28.916Z,1.27
2019-03-10T19:41:00.472Z,1.97
2019-03-10T19:43:31.716Z,2.90
2019-03-10T19:46:04.588Z,3.00
2019-03-10T19:48:36.109Z,2.30
2019-03-10T19:51:09.263Z,2.40
2019-03-10T19:53:40.714Z,2.10
2019-03-10T19:56:12.197Z,1.63
2019-03-10T19:58:43.614Z,1.37
2019-03-10T20:01:18.111Z,1.63
2019-03-10T20:03:49.495Z,1.33
2019-03-10T20:06:23.604Z,1.40
2019-03-10T20:08:57.190Z,1.20
2019-03-10T20:11:29.113Z,1.40
2019-03-10T20:14:03.120Z,2.07
2019-03-10T20:16:37.507Z,1.43
2019-03-10T20:19:12.127Z,5.37
2019-03-10T20:21:47.070Z,5.10
2019-03-10T20:24:19.042Z,2.20
2019-03-10T20:26:52.990Z,4.03
2019-03-10T20:29:24.319Z,1.90
2019-03-10T20:31:58.309Z,1.43
2019-03-10T20:34:29.612Z,2.10
2019-03-10T20:37:00.906Z,1.93
2019-03-10T20:39:36.121Z,2.90
2019-03-10T20:42:06.981Z,2.47
2019-03-10T20:44:38.322Z,2.30
2019-03-10T20:47:09.677Z,3.77
2019-03-10T20:49:40.895Z,1.83
2019-03-10T20:52:12.262Z,1.83
2019-03-10T20:54:43.818Z,3.43
2019-03-10T20:57:15.491Z,3.40
2019-03-10T20:59:46.861Z,3.70
2019-03-10T21:02:18.201Z,1.83
2019-03-10T21:04:49.818Z,1.30
2019-03-10T21:07:24.181Z,4.97
2019-03-10T21:09:55.636Z,1.53
2019-03-10T21:12:27.061Z,2.73
2019-03-10T21:14:58.950Z,3.63
2019-03-10T21:17:32.404Z,4.47
2019-03-10T21:20:06.807Z,1.93
2019-03-10T21:22:38.415Z,3.20
2019-03-10T21:25:19.094Z,5.37
2019-03-10T21:27:50.572Z,2.43
2019-03-10T21:30:26.022Z,4.00
2019-03-10T21:32:58.148Z,5.43
2019-03-10T21:35:29.343Z,4.10
2019-03-10T21:38:03.388Z,6.10
2019-03-10T21:40:36.202Z,9.40
2019-03-10T21:43:07.449Z,8.10
2019-03-10T21:45:42.255Z,6.73
2019-03-10T21:48:13.540Z,4.40
2019-03-10T21:50:49.753Z,6.00
2019-03-10T21:54:05.419Z,7.97
2019-03-10T21:56:37.512Z,7.63
2019-03-10T21:59:08.805Z,10.10
2019-03-10T22:01:40.102Z,5.53
2019-03-10T22:04:11.813Z,4.27
2019-03-10T22:06:43.016Z,8.27
2019-03-10T22:09:15.784Z,6.97
2019-03-10T22:11:54.470Z,9.77
2019-03-10T22:14:43.438Z,6.50
2019-03-10T22:17:23.526Z,5.50
2019-03-10T22:19:58.085Z,5.03
2019-03-10T22:22:40.003Z,8.37
2019-03-10T22:25:15.913Z,9.00
2019-03-10T22:27:49.649Z,7.53
2019-03-10T22:30:25.772Z,8.00
2019-03-10T22:32:57.050Z,8.07
2019-03-10T22:35:48.451Z,6.70
2019-03-10T22:38:20.900Z,8.00
2019-03-10T22:40:54.175Z,6.07
2019-03-10T22:43:43.384Z,9.27
2019-03-10T22:46:16.356Z,7.30
2019-03-10T22:48:49.941Z,7.77
2019-03-10T22:51:33.421Z,4.53
2019-03-10T22:54:17.539Z,3.60
2019-03-10T22:56:50.017Z,4.90
2019-03-10T22:59:21.249Z,6.80
2019-03-10T23:01:52.557Z,5.57
2019-03-10T23:04:26.725Z,5.70
2019-03-10T23:06:58.004Z,5.53
2019-03-10T23:09:29.197Z,9.67
2019-03-10T23:12:00.387Z,7.77
2019-03-10T23:14:31.645Z,6.83
2019-03-10T23:17:02.989Z,8.53
2019-03-10T23:19:36.999Z,6.07
2019-03-10T23:22:08.252Z,6.60
2019-03-10T23:24:39.528Z,6.40
2019-03-10T23:27:10.787Z,3.87
2019-03-10T23:29:42.027Z,8.17
2019-03-10T23:32:13.291Z,8.60
2019-03-10T23:34:44.618Z,3.83
2019-03-10T23:37:19.296Z,7.40
2019-03-10T23:39:50.523Z,10.83
2019-03-10T23:42:21.748Z,7.53
2019-03-10T23:44:53.008Z,11.50
2019-03-10T23:47:24.165Z,11.30
2019-03-10T23:49:55.433Z,10.70
2019-03-10T23:52:26.671Z,11.23
2019-03-10T23:54:57.915Z,9.50
2019-03-10T23:57:29.012Z,4.00
